Haines Creek, Florida
Current Conditions -  °F | °C
As of 8:53 PM on Friday 24 Oct 2014 (Local Time) from KLEE Reporting Station
Clear Clear  
Wind Chill: 65°   Ceiling: Unl
Heat Index: 65°   Visibility: 10mi
Dew Point: 56°   Wind: 6mph
Humidity: 73%   Direction: 40°NE
Pressure: 29.98"   Gusts: NA
Location:  28.9183°N, 81.7888°W
Report Text: KLEE 250053Z AUTO 04005KT 10SM CLR 18/13 A2998 RMK AO2 SLP149 T01830133
Loading
Personal Weather Stations






























Interactive Weather Map
Tropical Storm Tracking
New forecast layout! Learn more

10-Day Weather Forecast

Advertisements
Track Severe Weather on mobile